createdAt,value
2023-03-14T00:02:43.727Z,14.90
2023-03-14T00:07:46.652Z,14.47
2023-03-14T00:12:49.577Z,15.70
2023-03-14T00:17:52.490Z,14.49
2023-03-14T00:22:56.001Z,14.07
2023-03-14T00:27:59.514Z,14.91
2023-03-14T00:33:02.448Z,15.12
2023-03-14T00:38:05.422Z,15.15
2023-03-14T00:43:08.641Z,15.33
2023-03-14T00:48:11.846Z,15.25
2023-03-14T00:53:15.172Z,15.21
2023-03-14T00:58:19.426Z,15.17
2023-03-14T01:03:22.399Z,15.17
2023-03-14T01:08:25.309Z,15.12
2023-03-14T01:13:28.217Z,13.94
2023-03-14T01:18:31.117Z,14.47
2023-03-14T01:23:34.052Z,14.82
2023-03-14T01:28:37.031Z,14.68
2023-03-14T01:33:40.709Z,14.68
2023-03-14T01:38:43.555Z,14.80
2023-03-14T01:43:47.117Z,14.65
2023-03-14T01:49:08.317Z,13.61
2023-03-14T01:54:16.031Z,13.77
2023-03-14T01:59:20.270Z,14.41
2023-03-14T02:04:24.665Z,13.50
2023-03-14T02:09:27.915Z,13.17
2023-03-14T02:14:35.891Z,14.01
2023-03-14T02:19:50.096Z,13.92
2023-03-14T02:24:53.008Z,13.02
2023-03-14T02:30:01.276Z,13.67
2023-03-14T02:35:09.357Z,14.08
2023-03-14T02:40:13.379Z,12.88
2023-03-14T02:45:16.286Z,13.17
2023-03-14T02:50:23.705Z,13.89
2023-03-14T02:55:27.826Z,12.62
2023-03-14T03:00:31.963Z,13.41
2023-03-14T03:05:34.979Z,13.63
2023-03-14T03:10:37.977Z,12.50
2023-03-14T03:15:41.598Z,13.18
2023-03-14T03:20:44.809Z,13.30
2023-03-14T03:25:52.495Z,12.57
2023-03-14T03:30:55.971Z,13.63
2023-03-14T03:35:58.928Z,12.75
2023-03-14T03:41:07.342Z,12.71
2023-03-14T03:46:11.029Z,13.46
2023-03-14T03:51:17.434Z,12.48
2023-03-14T03:56:20.403Z,14.02
2023-03-14T04:01:23.305Z,13.06
2023-03-14T04:06:26.688Z,12.84
2023-03-14T04:11:29.837Z,13.92
2023-03-14T04:16:32.839Z,12.83
2023-03-14T04:21:35.742Z,12.62
2023-03-14T04:26:38.559Z,13.47
2023-03-14T04:31:41.521Z,12.33
2023-03-14T04:36:44.360Z,12.49
2023-03-14T04:41:47.484Z,12.75
2023-03-14T04:46:50.381Z,12.72
2023-03-14T04:51:53.914Z,13.07
2023-03-14T04:56:56.884Z,13.40
2023-03-14T05:01:59.837Z,13.45
2023-03-14T05:07:02.801Z,12.31
2023-03-14T05:12:06.106Z,13.03
2023-03-14T05:17:09.322Z,13.83
2023-03-14T05:22:13.080Z,13.05
2023-03-14T05:27:15.954Z,12.00
2023-03-14T05:32:18.996Z,13.37
2023-03-14T05:37:21.974Z,13.99
2023-03-14T05:42:24.861Z,12.56
2023-03-14T05:47:27.767Z,12.66
2023-03-14T05:52:30.673Z,13.97
2023-03-14T05:57:33.573Z,14.37
2023-03-14T06:02:36.480Z,13.08
2023-03-14T06:07:39.996Z,13.63
2023-03-14T06:12:42.806Z,14.37
2023-03-14T06:17:45.721Z,14.42
2023-03-14T06:22:48.708Z,13.14
2023-03-14T06:27:51.815Z,13.57
2023-03-14T06:32:55.073Z,14.02
2023-03-14T06:37:58.538Z,14.26
2023-03-14T06:43:01.453Z,13.89
2023-03-14T06:48:05.192Z,12.73
2023-03-14T06:53:08.463Z,13.46
2023-03-14T06:58:11.927Z,13.21
2023-03-14T07:03:15.936Z,12.32
2023-03-14T07:08:18.943Z,14.38
2023-03-14T07:13:21.815Z,13.86
2023-03-14T07:18:24.772Z,12.76
2023-03-14T07:23:27.968Z,13.93
2023-03-14T07:28:31.486Z,14.41
2023-03-14T07:33:34.688Z,12.89
2023-03-14T07:38:37.803Z,13.81
2023-03-14T07:43:41.019Z,13.30
2023-03-14T07:48:44.047Z,12.69
2023-03-14T07:53:47.229Z,14.25
2023-03-14T07:58:50.089Z,13.73
2023-03-14T08:03:53.068Z,12.62
2023-03-14T08:08:56.056Z,13.76
2023-03-14T08:13:59.159Z,13.58
2023-03-14T08:19:02.069Z,12.79
2023-03-14T08:24:05.066Z,13.66
2023-03-14T08:29:09.404Z,13.35
2023-03-14T08:34:12.467Z,13.33
2023-03-14T08:39:15.537Z,15.39
2023-03-14T08:44:20.714Z,15.38
2023-03-14T08:49:24.524Z,15.15
2023-03-14T08:54:28.114Z,14.96
2023-03-14T08:59:31.132Z,14.40
2023-03-14T09:04:34.534Z,14.04
2023-03-14T09:09:38.061Z,13.61
2023-03-14T09:14:41.176Z,13.37
2023-03-14T09:19:44.079Z,13.39
2023-03-14T09:24:47.460Z,13.63
2023-03-14T09:29:50.296Z,14.02
2023-03-14T09:34:53.305Z,14.46
2023-03-14T09:39:56.206Z,14.55
2023-03-14T09:45:06.799Z,14.35
2023-03-14T09:50:17.068Z,14.04
2023-03-14T09:55:23.350Z,13.83
2023-03-14T10:00:29.635Z,13.79
2023-03-14T10:05:32.528Z,13.77
2023-03-14T10:10:35.318Z,13.76
2023-03-14T10:15:39.676Z,13.81
2023-03-14T10:20:46.572Z,13.84
2023-03-14T10:26:16.714Z,13.92
2023-03-14T10:31:25.763Z,13.83
2023-03-14T10:36:35.840Z,13.68
2023-03-14T10:41:39.239Z,13.43
2023-03-14T10:46:42.383Z,13.24
2023-03-14T10:51:47.010Z,14.24
2023-03-14T10:57:01.734Z,15.05
2023-03-14T11:02:41.865Z,14.24
2023-03-14T11:07:46.171Z,13.83
2023-03-14T11:13:11.224Z,13.70
2023-03-14T11:18:47.513Z,14.92
2023-03-14T11:24:21.136Z,14.30
2023-03-14T11:29:42.677Z,13.90
2023-03-14T11:34:55.821Z,15.39
2023-03-14T11:40:05.389Z,15.64
2023-03-14T11:45:20.098Z,15.18
2023-03-14T11:50:31.067Z,14.97
2023-03-14T11:55:36.810Z,14.72
2023-03-14T12:00:41.138Z,14.44
2023-03-14T12:05:54.722Z,14.19
2023-03-14T12:11:04.156Z,14.08
2023-03-14T12:16:21.621Z,15.52
2023-03-14T12:21:45.211Z,14.87
2023-03-14T12:26:57.443Z,13.86
2023-03-14T12:32:25.115Z,14.27
2023-03-14T12:37:38.267Z,15.66
2023-03-14T12:42:55.774Z,14.44
2023-03-14T12:48:11.492Z,14.58
2023-03-14T12:53:17.181Z,15.13
2023-03-14T12:58:31.965Z,14.12
2023-03-14T13:03:54.629Z,15.09
2023-03-14T13:08:57.745Z,14.60
2023-03-14T13:14:01.053Z,14.35
2023-03-14T13:19:32.736Z,15.29
2023-03-14T13:24:36.088Z,14.24
2023-03-14T13:29:39.256Z,14.36
2023-03-14T13:34:42.227Z,15.25
2023-03-14T13:39:51.530Z,14.17
2023-03-14T13:44:55.554Z,13.94
2023-03-14T13:49:59.990Z,15.07
2023-03-14T13:55:04.630Z,14.04
2023-03-14T14:00:20.332Z,14.14
2023-03-14T14:05:27.342Z,14.68
2023-03-14T14:10:31.672Z,13.58
2023-03-14T14:15:40.971Z,14.20
2023-03-14T14:20:48.443Z,15.47
2023-03-14T14:25:51.341Z,15.39
2023-03-14T14:31:26.468Z,15.26
2023-03-14T14:36:34.076Z,15.50
2023-03-14T14:41:41.940Z,16.42
2023-03-14T14:46:45.179Z,16.97
2023-03-14T14:51:52.118Z,18.40
2023-03-14T14:57:04.176Z,18.13
2023-03-14T15:02:29.537Z,16.40
2023-03-14T15:07:32.935Z,15.00
2023-03-14T15:12:35.937Z,14.04
2023-03-14T15:17:39.605Z,13.42
2023-03-14T15:22:42.666Z,13.24
2023-03-14T15:27:45.559Z,14.36
2023-03-14T15:32:48.639Z,13.55
2023-03-14T15:37:51.897Z,13.36
2023-03-14T15:42:54.893Z,14.39
2023-03-14T15:47:57.796Z,13.61
2023-03-14T15:53:01.210Z,13.62
2023-03-14T15:58:04.233Z,14.52
2023-03-14T16:03:07.122Z,13.52
2023-03-14T16:08:10.121Z,13.82
2023-03-14T16:13:13.722Z,14.68
2023-03-14T16:18:21.846Z,13.56
2023-03-14T16:23:26.728Z,13.61
2023-03-14T16:28:29.623Z,14.58
2023-03-14T16:33:33.966Z,13.56
2023-03-14T16:38:38.608Z,14.21
2023-03-14T16:43:41.871Z,14.52
2023-03-14T16:48:45.233Z,13.35
2023-03-14T16:53:48.542Z,14.31
2023-03-14T16:58:51.756Z,14.63
2023-03-14T17:03:54.804Z,13.19
2023-03-14T17:08:58.353Z,13.69
2023-03-14T17:14:02.629Z,14.42
2023-03-14T17:19:05.480Z,13.27
2023-03-14T17:24:08.435Z,14.20
2023-03-14T17:29:11.336Z,14.15
2023-03-14T17:34:14.228Z,13.27
2023-03-14T17:39:17.087Z,14.43
2023-03-14T17:44:20.047Z,13.59
2023-03-14T17:49:22.950Z,13.91
2023-03-14T17:54:25.849Z,14.65
2023-03-14T17:59:28.975Z,13.35
2023-03-14T18:04:31.935Z,13.69
2023-03-14T18:09:34.887Z,14.69
2023-03-14T18:14:38.299Z,13.50
2023-03-14T18:19:41.601Z,14.08
2023-03-14T18:24:44.507Z,14.68
2023-03-14T18:29:47.411Z,13.55
2023-03-14T18:34:50.317Z,13.83
2023-03-14T18:39:53.734Z,14.44
2023-03-14T18:44:56.704Z,14.52
2023-03-14T18:49:59.552Z,13.71
2023-03-14T18:55:02.548Z,13.45
2023-03-14T19:00:13.230Z,14.33
2023-03-14T19:05:16.774Z,14.52
2023-03-14T19:10:19.857Z,14.66
2023-03-14T19:15:22.761Z,14.78
2023-03-14T19:20:25.770Z,14.15
2023-03-14T19:25:28.640Z,13.83
2023-03-14T19:30:31.672Z,14.50
2023-03-14T19:35:34.600Z,14.65
2023-03-14T19:40:39.685Z,14.52
2023-03-14T19:45:43.471Z,14.59
2023-03-14T19:50:46.362Z,13.33
2023-03-14T19:55:50.501Z,13.95
2023-03-14T20:00:53.732Z,14.51
2023-03-14T20:05:56.814Z,14.00
2023-03-14T20:10:59.821Z,13.44
2023-03-14T20:16:10.821Z,14.24
2023-03-14T20:21:14.543Z,14.32
2023-03-14T20:26:17.451Z,13.25
2023-03-14T20:31:20.520Z,14.18
2023-03-14T20:36:23.584Z,14.45
2023-03-14T20:41:26.480Z,13.38
2023-03-14T20:46:29.470Z,13.68
2023-03-14T20:51:33.261Z,14.24
2023-03-14T20:56:36.208Z,13.53
2023-03-14T21:06:59.497Z,13.73
2023-03-14T21:12:02.428Z,13.95
2023-03-14T21:17:05.215Z,13.99
2023-03-14T21:22:08.133Z,13.77
2023-03-14T21:27:12.484Z,13.76
2023-03-14T21:32:15.992Z,13.53
2023-03-14T21:37:20.222Z,13.66
2023-03-14T21:42:24.560Z,13.69
2023-03-14T21:47:27.505Z,13.93
2023-03-14T21:52:30.351Z,13.93
2023-03-14T21:57:33.475Z,13.63
2023-03-14T22:02:36.495Z,12.31
2023-03-14T22:07:41.331Z,9.76
2023-03-14T22:12:44.031Z,9.68
2023-03-14T22:17:46.879Z,9.78
2023-03-14T22:22:49.831Z,9.48
2023-03-14T22:27:52.634Z,7.92
2023-03-14T22:32:56.906Z,8.46
2023-03-14T22:37:59.717Z,9.02
2023-03-14T22:43:02.603Z,7.99
2023-03-14T22:48:05.585Z,6.96
2023-03-14T22:53:08.365Z,7.92
2023-03-14T22:58:11.186Z,8.27
2023-03-14T23:03:14.547Z,8.06
2023-03-14T23:08:17.402Z,6.64
2023-03-14T23:13:20.299Z,7.29
2023-03-14T23:18:27.758Z,7.97
2023-03-14T23:23:30.704Z,8.27
2023-03-14T23:28:33.959Z,7.23
2023-03-14T23:33:37.819Z,6.40
2023-03-14T23:38:42.868Z,7.46
2023-03-14T23:43:46.753Z,7.89
2023-03-14T23:48:51.373Z,8.05
2023-03-14T23:53:54.198Z,6.20
2023-03-14T23:58:57.016Z,6.58
